createdAt,value
2019-03-10T00:03:29.606Z,95659
2019-03-10T00:08:25.188Z,95667.8
2019-03-10T00:13:20.364Z,95666.2
2019-03-10T00:18:15.405Z,95669.6
2019-03-10T00:23:10.810Z,95679.7
2019-03-10T00:28:06.056Z,95689.2
2019-03-10T00:33:01.660Z,95689.6
2019-03-10T00:37:56.962Z,95691.5
2019-03-10T00:42:52.422Z,95681.9
2019-03-10T00:47:47.972Z,95672.4
2019-03-10T00:52:43.597Z,95673.9
2019-03-10T00:57:38.946Z,95687.2
2019-03-10T01:02:34.714Z,95681.9
2019-03-10T01:07:30.081Z,95677.5
2019-03-10T01:12:25.731Z,95673.3
2019-03-10T01:17:21.442Z,95675.6
2019-03-10T01:22:17.006Z,95669.8
2019-03-10T01:27:11.828Z,95562.3
2019-03-10T01:32:07.452Z,95678.2
2019-03-10T01:37:02.914Z,95670.5
2019-03-10T01:41:58.580Z,95670.2
2019-03-10T01:46:53.899Z,95656.6
2019-03-10T01:51:49.513Z,95643.4
2019-03-10T01:56:45.140Z,95642.5
2019-03-10T02:01:40.795Z,95640.4
2019-03-10T02:06:36.360Z,95637.4
2019-03-10T02:11:31.938Z,95630.7
2019-03-10T02:16:27.310Z,95629.1
2019-03-10T02:21:22.702Z,95640.9
2019-03-10T02:26:17.838Z,95647.4
2019-03-10T02:31:13.462Z,95650.9
2019-03-10T02:36:08.754Z,95651.7
2019-03-10T02:41:04.267Z,95665.2
2019-03-10T02:45:59.299Z,95688.1
2019-03-10T02:50:54.682Z,95687.9
2019-03-10T02:55:50.239Z,95698.5
2019-03-10T03:00:45.609Z,95709.1
2019-03-10T03:05:40.988Z,95699
2019-03-10T03:10:36.455Z,95695.4
2019-03-10T03:15:31.815Z,95700.1
2019-03-10T03:20:27.696Z,95696
2019-03-10T03:25:23.037Z,95677.8
2019-03-10T03:30:18.633Z,95682.6
2019-03-10T03:35:14.029Z,95682.8
2019-03-10T03:40:09.633Z,95688.7
2019-03-10T03:45:04.866Z,95695.3
2019-03-10T03:50:00.590Z,95696.4
2019-03-10T03:54:55.731Z,95707.1
2019-03-10T03:59:51.065Z,95712.9
2019-03-10T04:04:46.576Z,95712.2
2019-03-10T04:09:42.069Z,95716.7
2019-03-10T04:14:37.661Z,95714.7
2019-03-10T04:19:33.360Z,95708.4
2019-03-10T04:24:29.021Z,95709.2
2019-03-10T04:29:24.622Z,95715.9
2019-03-10T04:34:19.918Z,95728.5
2019-03-10T04:39:15.631Z,95728.9
2019-03-10T04:44:10.664Z,95726.5
2019-03-10T04:49:06.177Z,95727.9
2019-03-10T04:54:01.591Z,95732.3
2019-03-10T04:58:57.298Z,95707.9
2019-03-10T05:03:53.898Z,95747.2
2019-03-10T05:08:48.934Z,95744.1
2019-03-10T05:13:45.698Z,95740.1
2019-03-10T05:18:40.940Z,95720.4
2019-03-10T05:23:36.521Z,94623.2
2019-03-10T05:28:31.956Z,95776.9
2019-03-10T05:33:29.909Z,95781.1
2019-03-10T05:38:24.757Z,95788.6
2019-03-10T05:43:20.800Z,95783.8
2019-03-10T05:48:15.994Z,95794
2019-03-10T05:53:12.250Z,95796.5
2019-03-10T05:58:07.753Z,95832
2019-03-10T06:03:03.233Z,95833.8
2019-03-10T06:07:58.740Z,95840.4
2019-03-10T06:12:54.157Z,95863.3
2019-03-10T06:17:49.800Z,95868.3
2019-03-10T06:22:45.185Z,95859.6
2019-03-10T06:27:40.615Z,95875.4
2019-03-10T06:32:36.221Z,95893.4
2019-03-10T06:37:32.352Z,95888.7
2019-03-10T06:42:28.801Z,95810.4
2019-03-10T06:47:24.614Z,95887.1
2019-03-10T06:52:20.688Z,95874.6
2019-03-10T06:57:16.253Z,95888.2
2019-03-10T07:02:11.033Z,95884.7
2019-03-10T07:12:02.299Z,95886.7
2019-03-10T07:16:58.087Z,95898.4
2019-03-10T07:21:53.461Z,95898.8
2019-03-10T07:26:49.250Z,95906.1
2019-03-10T07:31:45.551Z,95755.2
2019-03-10T07:36:40.496Z,95908.9
2019-03-10T07:41:36.637Z,95858.1
2019-03-10T07:46:32.108Z,95899.7
2019-03-10T07:51:27.691Z,95881.7
2019-03-10T07:56:23.333Z,95885.1
2019-03-10T08:01:19.093Z,95883.1
2019-03-10T08:06:14.791Z,95870.4
2019-03-10T08:11:10.518Z,95862.6
2019-03-10T08:16:06.418Z,95837.1
2019-03-10T08:21:02.377Z,95857.5
2019-03-10T08:25:58.020Z,95848.4
2019-03-10T08:30:53.172Z,95833.1
2019-03-10T08:35:49.022Z,95845.7
2019-03-10T08:40:44.540Z,95840
2019-03-10T08:45:40.356Z,95721
2019-03-10T08:50:36.113Z,95819.2
2019-03-10T08:55:31.966Z,95819.7
2019-03-10T09:00:27.850Z,95813.1
2019-03-10T09:05:23.634Z,95823.9
2019-03-10T09:10:18.796Z,95839.3
2019-03-10T09:15:14.263Z,95815.8
2019-03-10T09:20:10.688Z,95814.8
2019-03-10T09:25:06.337Z,95692.3
2019-03-10T09:30:02.096Z,95785.4
2019-03-10T09:34:58.090Z,95766.8
2019-03-10T09:39:53.690Z,95748.8
2019-03-10T09:44:49.447Z,95765
2019-03-10T09:49:45.565Z,95652.4
2019-03-10T09:54:41.302Z,95749.2
2019-03-10T09:59:36.963Z,95738.2
2019-03-10T10:04:33.323Z,95734.8
2019-03-10T10:09:28.849Z,95652
2019-03-10T10:14:24.934Z,95725.3
2019-03-10T10:19:20.470Z,95721.8
2019-03-10T10:24:16.308Z,95731.5
2019-03-10T10:29:12.106Z,95716.8
2019-03-10T10:34:07.665Z,95704.5
2019-03-10T10:39:03.083Z,95702
2019-03-10T10:43:59.004Z,95701.1
2019-03-10T10:48:55.001Z,95693.7
2019-03-10T10:53:50.842Z,95699.2
2019-03-10T10:58:46.307Z,95681.7
2019-03-10T11:03:42.241Z,95681.7
2019-03-10T11:08:38.347Z,95668.5
2019-03-10T11:13:34.052Z,95657.4
2019-03-10T11:18:29.851Z,95648
2019-03-10T11:23:25.677Z,95704.7
2019-03-10T11:28:21.469Z,95616.4
2019-03-10T11:33:17.512Z,95702.9
2019-03-10T11:38:13.483Z,95694.4
2019-03-10T11:43:09.202Z,95699.1
2019-03-10T11:48:07.402Z,95299
2019-03-10T11:53:02.255Z,95483.3
2019-03-10T11:57:58.151Z,95444.2
2019-03-10T12:02:54.155Z,95440
2019-03-10T12:07:50.143Z,95442.4
2019-03-10T12:12:46.038Z,95522.7
2019-03-10T12:17:41.957Z,95502.9
2019-03-10T12:22:37.804Z,95503.3
2019-03-10T12:27:33.594Z,95510.3
2019-03-10T12:32:29.571Z,95477.2
2019-03-10T12:37:25.302Z,95468.5
2019-03-10T12:42:21.930Z,95444.6
2019-03-10T12:47:17.704Z,95442.7
2019-03-10T12:52:13.433Z,95424.6
2019-03-10T12:57:09.597Z,95269.6
2019-03-10T13:02:05.314Z,95299.5
2019-03-10T13:07:01.190Z,95374.8
2019-03-10T13:11:57.024Z,95269.4
2019-03-10T13:16:52.243Z,95273.5
2019-03-10T13:21:47.488Z,95263.3
2019-03-10T13:26:42.864Z,95237.9
2019-03-10T13:31:38.954Z,95226
2019-03-10T13:36:34.774Z,95326.9
2019-03-10T13:46:26.588Z,95289.5
2019-03-10T13:51:22.835Z,95298
2019-03-10T13:56:18.382Z,95278.1
2019-03-10T14:01:14.341Z,95279
2019-03-10T14:06:10.343Z,95265.8
2019-03-10T14:11:06.079Z,95268.9
2019-03-10T14:16:01.749Z,95278.6
2019-03-10T14:20:57.834Z,95263.3
2019-03-10T14:25:53.747Z,95255.1
2019-03-10T14:30:49.508Z,95154.2
2019-03-10T14:35:45.171Z,95248
2019-03-10T14:40:40.510Z,95136.9
2019-03-10T14:45:36.415Z,95102.9
2019-03-10T14:50:32.406Z,95132.4
2019-03-10T14:55:28.065Z,95124.5
2019-03-10T15:00:23.407Z,95120.7
2019-03-10T15:05:19.595Z,95215.7
2019-03-10T15:10:15.230Z,95114.2
2019-03-10T15:15:21.135Z,95121.2
2019-03-10T15:20:06.419Z,95119
2019-03-10T15:25:02.182Z,95289.6
2019-03-10T15:29:58.075Z,95266.6
2019-03-10T15:34:53.847Z,95100.2
2019-03-10T15:39:49.774Z,95083.3
2019-03-10T15:44:45.626Z,95095.7
2019-03-10T15:49:41.705Z,95171.9
2019-03-10T15:54:37.599Z,95235.2
2019-03-10T15:59:33.391Z,95079
2019-03-10T16:04:29.133Z,95069.4
2019-03-10T16:09:24.893Z,95066.5
2019-03-10T16:14:20.731Z,95059.1
2019-03-10T16:19:16.189Z,95261.7
2019-03-10T16:24:12.028Z,95294.1
2019-03-10T16:29:08.906Z,95274.9
2019-03-10T16:34:03.278Z,95269
2019-03-10T16:38:58.897Z,95260.2
2019-03-10T16:43:54.542Z,95222
2019-03-10T16:48:50.653Z,95264
2019-03-10T16:53:46.595Z,95245.5
2019-03-10T16:58:42.314Z,95269.1
2019-03-10T17:03:37.899Z,95165.1
2019-03-10T17:08:33.188Z,95243.3
2019-03-10T17:13:28.821Z,95180
2019-03-10T17:18:24.705Z,95188.1
2019-03-10T17:23:20.502Z,95117
2019-03-10T17:28:16.341Z,95111.8
2019-03-10T17:33:12.076Z,95196.7
2019-03-10T17:38:08.041Z,95138.7
2019-03-10T17:43:03.590Z,95198.2
2019-03-10T17:47:59.380Z,95057.7
2019-03-10T17:52:54.949Z,95087.8
2019-03-10T17:57:50.415Z,95090.7
2019-03-10T18:02:46.248Z,95205.2
2019-03-10T18:07:42.116Z,94969.9
2019-03-10T18:12:37.777Z,95113.4
2019-03-10T18:17:33.390Z,94947.8
2019-03-10T18:22:29.322Z,95104.6
2019-03-10T18:27:25.255Z,95160.5
2019-03-10T18:32:20.924Z,95009.5
2019-03-10T18:37:16.456Z,95140.1
2019-03-10T18:42:12.362Z,94994.5
2019-03-10T18:47:08.358Z,95131.7
2019-03-10T18:52:04.219Z,95068
2019-03-10T18:57:00.586Z,94918.5
2019-03-10T19:01:56.203Z,94926.2
2019-03-10T19:06:50.873Z,95132
2019-03-10T19:11:46.288Z,95163.6
2019-03-10T19:16:42.092Z,94776.4
2019-03-10T19:21:38.013Z,95024.8
2019-03-10T19:26:33.700Z,95102.7
2019-03-10T19:31:29.319Z,95078.7
2019-03-10T19:36:24.853Z,95007.6
2019-03-10T19:41:20.972Z,94999.7
2019-03-10T19:46:16.844Z,94996.9
2019-03-10T19:51:12.826Z,95000
2019-03-10T19:56:08.626Z,95002
2019-03-10T20:01:04.242Z,94997.6
2019-03-10T20:06:00.123Z,95002.4
2019-03-10T20:10:55.827Z,95005.5
2019-03-10T20:15:52.736Z,94889.1
2019-03-10T20:20:47.792Z,94984.1
2019-03-10T20:25:42.891Z,95003.1
2019-03-10T20:30:38.845Z,94894.6
2019-03-10T20:35:34.746Z,94983.3
2019-03-10T20:40:30.509Z,94979.2
2019-03-10T20:45:26.446Z,94984.1
2019-03-10T20:50:22.531Z,94983.2
2019-03-10T20:55:18.500Z,94920.7
2019-03-10T21:00:14.207Z,94961
2019-03-10T21:05:10.150Z,95004.1
2019-03-10T21:10:06.002Z,95003.8
2019-03-10T21:15:03.150Z,95007.1
2019-03-10T21:19:59.278Z,95008
2019-03-10T21:24:55.457Z,94987.2
2019-03-10T21:29:50.713Z,94992.6
2019-03-10T21:34:46.184Z,94961.8
2019-03-10T21:39:42.094Z,94987.9
2019-03-10T21:44:37.911Z,95005.9
2019-03-10T21:49:33.489Z,94998.3
2019-03-10T21:54:29.383Z,94968.2
2019-03-10T21:59:25.140Z,95009.1
2019-03-10T22:04:20.854Z,95023.3
2019-03-10T22:09:16.334Z,95023.4
2019-03-10T22:14:12.115Z,95033.5
2019-03-10T22:19:07.761Z,95038.2
2019-03-10T22:24:03.689Z,95035.3
2019-03-10T22:28:59.458Z,95033.9
2019-03-10T22:33:54.865Z,95056.9
2019-03-10T22:38:50.703Z,94905.2
2019-03-10T22:43:46.464Z,95071
2019-03-10T22:48:42.378Z,95067.1
2019-03-10T22:53:38.024Z,95069.6
2019-03-10T22:58:33.841Z,95068.3
2019-03-10T23:03:29.749Z,95062.1
2019-03-10T23:08:25.247Z,94951.5
2019-03-10T23:13:21.033Z,94960.1
2019-03-10T23:18:16.813Z,95072.1
2019-03-10T23:23:12.442Z,95070.4
2019-03-10T23:28:08.154Z,95068.7
2019-03-10T23:33:03.991Z,95085.9
2019-03-10T23:37:59.787Z,95095.3
2019-03-10T23:42:56.330Z,95096.9
2019-03-10T23:47:51.625Z,95105.3
2019-03-10T23:52:47.005Z,95108.9
2019-03-10T23:57:42.823Z,95080.2
